sensor_id;sensor_type;location;lat;lon;timestamp;P1;durP1;ratioP1;P2;durP2;ratioP2
33367;SDS011;19724;51.114;13.906;2022-11-11T00:00:10;8.45;;;4.82;;
33367;SDS011;19724;51.114;13.906;2022-11-11T00:02:36;12.35;;;6.10;;
33367;SDS011;19724;51.114;13.906;2022-11-11T00:05:02;12.00;;;6.05;;
33367;SDS011;19724;51.114;13.906;2022-11-11T00:07:28;8.52;;;5.88;;
33367;SDS011;19724;51.114;13.906;2022-11-11T00:09:53;12.15;;;6.20;;
33367;SDS011;19724;51.114;13.906;2022-11-11T00:12:19;13.85;;;6.60;;
33367;SDS011;19724;51.114;13.906;2022-11-11T00:14:44;12.32;;;6.20;;
33367;SDS011;19724;51.114;13.906;2022-11-11T00:17:13;13.07;;;6.00;;
33367;SDS011;19724;51.114;13.906;2022-11-11T00:19:58;10.07;;;5.38;;
33367;SDS011;19724;51.114;13.906;2022-11-11T00:22:42;8.68;;;5.60;;
33367;SDS011;19724;51.114;13.906;2022-11-11T00:25:26;13.70;;;6.63;;
33367;SDS011;19724;51.114;13.906;2022-11-11T00:27:51;12.30;;;6.90;;
33367;SDS011;19724;51.114;13.906;2022-11-11T00:30:17;11.20;;;5.97;;
33367;SDS011;19724;51.114;13.906;2022-11-11T00:32:43;10.13;;;5.97;;
33367;SDS011;19724;51.114;13.906;2022-11-11T00:35:08;9.73;;;6.15;;
33367;SDS011;19724;51.114;13.906;2022-11-11T00:37:53;10.82;;;5.68;;
33367;SDS011;19724;51.114;13.906;2022-11-11T00:40:19;15.50;;;6.25;;
33367;SDS011;19724;51.114;13.906;2022-11-11T00:42:44;11.68;;;6.30;;
33367;SDS011;19724;51.114;13.906;2022-11-11T00:45:10;12.32;;;6.22;;
33367;SDS011;19724;51.114;13.906;2022-11-11T00:47:36;8.45;;;5.47;;
33367;SDS011;19724;51.114;13.906;2022-11-11T00:50:22;11.18;;;6.85;;
33367;SDS011;19724;51.114;13.906;2022-11-11T00:53:14;11.60;;;5.22;;
33367;SDS011;19724;51.114;13.906;2022-11-11T00:55:48;15.13;;;5.95;;
33367;SDS011;19724;51.114;13.906;2022-11-11T00:58:14;8.43;;;5.00;;
33367;SDS011;19724;51.114;13.906;2022-11-11T01:00:41;13.95;;;6.05;;
33367;SDS011;19724;51.114;13.906;2022-11-11T01:03:07;16.80;;;6.10;;
33367;SDS011;19724;51.114;13.906;2022-11-11T01:05:33;11.20;;;6.38;;
33367;SDS011;19724;51.114;13.906;2022-11-11T01:08:00;10.35;;;5.95;;
33367;SDS011;19724;51.114;13.906;2022-11-11T01:10:26;14.07;;;6.30;;
33367;SDS011;19724;51.114;13.906;2022-11-11T01:13:06;8.75;;;4.88;;
33367;SDS011;19724;51.114;13.906;2022-11-11T01:15:40;12.50;;;6.05;;
33367;SDS011;19724;51.114;13.906;2022-11-11T01:18:07;9.88;;;4.88;;
33367;SDS011;19724;51.114;13.906;2022-11-11T01:20:34;13.95;;;4.75;;
33367;SDS011;19724;51.114;13.906;2022-11-11T01:23:01;8.57;;;5.05;;
33367;SDS011;19724;51.114;13.906;2022-11-11T01:25:28;8.30;;;3.72;;
33367;SDS011;19724;51.114;13.906;2022-11-11T01:27:54;10.35;;;4.57;;
33367;SDS011;19724;51.114;13.906;2022-11-11T01:30:19;12.02;;;5.13;;
33367;SDS011;19724;51.114;13.906;2022-11-11T01:32:45;11.60;;;5.70;;
33367;SDS011;19724;51.114;13.906;2022-11-11T01:35:10;10.88;;;5.32;;
33367;SDS011;19724;51.114;13.906;2022-11-11T01:37:36;10.63;;;5.45;;
33367;SDS011;19724;51.114;13.906;2022-11-11T01:40:02;8.35;;;4.78;;
33367;SDS011;19724;51.114;13.906;2022-11-11T01:42:28;8.60;;;5.05;;
33367;SDS011;19724;51.114;13.906;2022-11-11T01:44:53;11.07;;;5.13;;
33367;SDS011;19724;51.114;13.906;2022-11-11T01:47:19;10.15;;;5.15;;
33367;SDS011;19724;51.114;13.906;2022-11-11T01:49:50;10.20;;;5.72;;
33367;SDS011;19724;51.114;13.906;2022-11-11T01:52:25;8.73;;;4.97;;
33367;SDS011;19724;51.114;13.906;2022-11-11T01:55:04;11.75;;;4.85;;
33367;SDS011;19724;51.114;13.906;2022-11-11T01:57:46;7.18;;;4.70;;
33367;SDS011;19724;51.114;13.906;2022-11-11T02:00:37;13.20;;;5.68;;
33367;SDS011;19724;51.114;13.906;2022-11-11T02:03:05;12.77;;;5.40;;
33367;SDS011;19724;51.114;13.906;2022-11-11T02:05:33;12.30;;;4.88;;
33367;SDS011;19724;51.114;13.906;2022-11-11T02:08:13;8.98;;;4.88;;
33367;SDS011;19724;51.114;13.906;2022-11-11T02:10:58;9.65;;;4.95;;
33367;SDS011;19724;51.114;13.906;2022-11-11T02:13:27;7.82;;;4.10;;
33367;SDS011;19724;51.114;13.906;2022-11-11T02:16:12;11.65;;;5.05;;
33367;SDS011;19724;51.114;13.906;2022-11-11T02:18:38;12.02;;;5.13;;
33367;SDS011;19724;51.114;13.906;2022-11-11T02:21:05;10.68;;;5.47;;
33367;SDS011;19724;51.114;13.906;2022-11-11T02:23:44;10.35;;;4.78;;
33367;SDS011;19724;51.114;13.906;2022-11-11T02:26:30;11.05;;;5.05;;
33367;SDS011;19724;51.114;13.906;2022-11-11T02:28:58;12.13;;;4.90;;
33367;SDS011;19724;51.114;13.906;2022-11-11T02:31:29;11.25;;;5.50;;
33367;SDS011;19724;51.114;13.906;2022-11-11T02:33:56;8.90;;;5.22;;
33367;SDS011;19724;51.114;13.906;2022-11-11T02:36:21;7.65;;;4.53;;
33367;SDS011;19724;51.114;13.906;2022-11-11T02:38:47;8.52;;;4.50;;
33367;SDS011;19724;51.114;13.906;2022-11-11T02:41:13;9.30;;;4.07;;
33367;SDS011;19724;51.114;13.906;2022-11-11T02:43:57;14.63;;;5.60;;
33367;SDS011;19724;51.114;13.906;2022-11-11T02:46:23;9.27;;;4.53;;
33367;SDS011;19724;51.114;13.906;2022-11-11T02:48:48;9.82;;;5.07;;
33367;SDS011;19724;51.114;13.906;2022-11-11T02:51:14;7.32;;;4.22;;
33367;SDS011;19724;51.114;13.906;2022-11-11T02:53:39;10.32;;;4.88;;
33367;SDS011;19724;51.114;13.906;2022-11-11T02:56:05;8.27;;;5.07;;
33367;SDS011;19724;51.114;13.906;2022-11-11T02:58:31;10.25;;;5.05;;
33367;SDS011;19724;51.114;13.906;2022-11-11T03:00:57;9.40;;;4.50;;
33367;SDS011;19724;51.114;13.906;2022-11-11T03:03:22;7.30;;;3.95;;
33367;SDS011;19724;51.114;13.906;2022-11-11T03:05:48;10.82;;;4.63;;
33367;SDS011;19724;51.114;13.906;2022-11-11T03:08:14;11.95;;;4.35;;
33367;SDS011;19724;51.114;13.906;2022-11-11T03:10:39;11.05;;;4.95;;
33367;SDS011;19724;51.114;13.906;2022-11-11T03:13:05;9.45;;;4.40;;
33367;SDS011;19724;51.114;13.906;2022-11-11T03:15:30;10.05;;;4.95;;
33367;SDS011;19724;51.114;13.906;2022-11-11T03:17:56;7.82;;;4.07;;
33367;SDS011;19724;51.114;13.906;2022-11-11T03:20:21;9.32;;;4.55;;
33367;SDS011;19724;51.114;13.906;2022-11-11T03:23:06;7.70;;;4.40;;
33367;SDS011;19724;51.114;13.906;2022-11-11T03:25:40;9.90;;;4.23;;
33367;SDS011;19724;51.114;13.906;2022-11-11T03:30:35;9.48;;;5.00;;
33367;SDS011;19724;51.114;13.906;2022-11-11T03:33:01;8.10;;;4.38;;
33367;SDS011;19724;51.114;13.906;2022-11-11T03:35:28;12.48;;;5.25;;
33367;SDS011;19724;51.114;13.906;2022-11-11T03:37:54;7.50;;;4.82;;
33367;SDS011;19724;51.114;13.906;2022-11-11T03:40:39;9.90;;;4.20;;
33367;SDS011;19724;51.114;13.906;2022-11-11T03:43:05;10.35;;;4.43;;
33367;SDS011;19724;51.114;13.906;2022-11-11T03:45:31;7.00;;;3.70;;
33367;SDS011;19724;51.114;13.906;2022-11-11T03:47:57;10.07;;;5.07;;
33367;SDS011;19724;51.114;13.906;2022-11-11T03:50:23;11.20;;;6.32;;
33367;SDS011;19724;51.114;13.906;2022-11-11T03:52:49;9.35;;;4.82;;
33367;SDS011;19724;51.114;13.906;2022-11-11T03:55:14;8.52;;;3.95;;
33367;SDS011;19724;51.114;13.906;2022-11-11T03:57:44;8.88;;;4.65;;
33367;SDS011;19724;51.114;13.906;2022-11-11T04:00:11;9.73;;;3.83;;
33367;SDS011;19724;51.114;13.906;2022-11-11T04:02:42;8.90;;;4.22;;
33367;SDS011;19724;51.114;13.906;2022-11-11T04:05:26;9.05;;;4.18;;
33367;SDS011;19724;51.114;13.906;2022-11-11T04:08:14;7.30;;;4.18;;
33367;SDS011;19724;51.114;13.906;2022-11-11T04:11:02;8.27;;;4.43;;
33367;SDS011;19724;51.114;13.906;2022-11-11T04:13:34;9.35;;;4.07;;
33367;SDS011;19724;51.114;13.906;2022-11-11T04:16:19;10.77;;;4.60;;
33367;SDS011;19724;51.114;13.906;2022-11-11T04:18:44;7.38;;;3.92;;
33367;SDS011;19724;51.114;13.906;2022-11-11T04:21:28;8.30;;;4.35;;
33367;SDS011;19724;51.114;13.906;2022-11-11T04:24:10;7.30;;;4.40;;
33367;SDS011;19724;51.114;13.906;2022-11-11T04:26:56;6.68;;;4.18;;
33367;SDS011;19724;51.114;13.906;2022-11-11T04:29:23;8.63;;;3.95;;
33367;SDS011;19724;51.114;13.906;2022-11-11T04:31:52;7.22;;;4.15;;
33367;SDS011;19724;51.114;13.906;2022-11-11T04:34:51;8.52;;;4.45;;
33367;SDS011;19724;51.114;13.906;2022-11-11T04:37:30;9.10;;;4.40;;
33367;SDS011;19724;51.114;13.906;2022-11-11T04:39:56;5.85;;;3.92;;
33367;SDS011;19724;51.114;13.906;2022-11-11T04:42:41;9.18;;;3.95;;
33367;SDS011;19724;51.114;13.906;2022-11-11T04:45:09;8.25;;;4.40;;
33367;SDS011;19724;51.114;13.906;2022-11-11T04:47:59;9.05;;;4.13;;
33367;SDS011;19724;51.114;13.906;2022-11-11T04:52:59;9.63;;;4.55;;
33367;SDS011;19724;51.114;13.906;2022-11-11T04:55:26;12.45;;;4.60;;
33367;SDS011;19724;51.114;13.906;2022-11-11T04:58:11;8.98;;;4.43;;
33367;SDS011;19724;51.114;13.906;2022-11-11T05:00:37;6.63;;;4.30;;
33367;SDS011;19724;51.114;13.906;2022-11-11T05:03:02;9.85;;;4.60;;
33367;SDS011;19724;51.114;13.906;2022-11-11T05:08:39;11.52;;;7.03;;
33367;SDS011;19724;51.114;13.906;2022-11-11T05:13:50;14.68;;;7.53;;
33367;SDS011;19724;51.114;13.906;2022-11-11T05:19:21;10.55;;;5.47;;
33367;SDS011;19724;51.114;13.906;2022-11-11T05:22:06;11.00;;;6.05;;
33367;SDS011;19724;51.114;13.906;2022-11-11T05:24:37;9.77;;;5.55;;
33367;SDS011;19724;51.114;13.906;2022-11-11T05:27:22;12.23;;;6.30;;
33367;SDS011;19724;51.114;13.906;2022-11-11T05:29:48;10.90;;;6.60;;
33367;SDS011;19724;51.114;13.906;2022-11-11T05:32:17;11.95;;;5.90;;
33367;SDS011;19724;51.114;13.906;2022-11-11T05:34:44;9.45;;;5.55;;
33367;SDS011;19724;51.114;13.906;2022-11-11T05:37:10;10.43;;;5.07;;
33367;SDS011;19724;51.114;13.906;2022-11-11T05:39:36;6.93;;;4.57;;
33367;SDS011;19724;51.114;13.906;2022-11-11T05:42:02;11.13;;;4.68;;
33367;SDS011;19724;51.114;13.906;2022-11-11T05:44:28;9.85;;;5.25;;
33367;SDS011;19724;51.114;13.906;2022-11-11T05:46:53;11.63;;;5.15;;
33367;SDS011;19724;51.114;13.906;2022-11-11T05:49:19;15.13;;;5.65;;
33367;SDS011;19724;51.114;13.906;2022-11-11T05:51:44;13.07;;;5.03;;
33367;SDS011;19724;51.114;13.906;2022-11-11T05:54:11;10.48;;;5.18;;
33367;SDS011;19724;51.114;13.906;2022-11-11T05:56:37;7.63;;;4.75;;
33367;SDS011;19724;51.114;13.906;2022-11-11T05:59:03;9.40;;;4.93;;
33367;SDS011;19724;51.114;13.906;2022-11-11T06:01:29;11.95;;;6.07;;
33367;SDS011;19724;51.114;13.906;2022-11-11T06:03:55;7.63;;;5.05;;
33367;SDS011;19724;51.114;13.906;2022-11-11T06:06:21;16.33;;;5.75;;
33367;SDS011;19724;51.114;13.906;2022-11-11T06:08:47;10.00;;;5.97;;
33367;SDS011;19724;51.114;13.906;2022-11-11T06:11:12;12.20;;;4.95;;
33367;SDS011;19724;51.114;13.906;2022-11-11T06:13:38;12.18;;;6.05;;
33367;SDS011;19724;51.114;13.906;2022-11-11T06:16:03;16.75;;;6.80;;
33367;SDS011;19724;51.114;13.906;2022-11-11T06:18:29;8.77;;;5.18;;
33367;SDS011;19724;51.114;13.906;2022-11-11T06:20:56;8.50;;;5.13;;
33367;SDS011;19724;51.114;13.906;2022-11-11T06:23:23;11.93;;;5.85;;
33367;SDS011;19724;51.114;13.906;2022-11-11T06:25:49;9.02;;;4.95;;
33367;SDS011;19724;51.114;13.906;2022-11-11T06:28:33;11.52;;;6.05;;
33367;SDS011;19724;51.114;13.906;2022-11-11T06:30:59;12.73;;;5.60;;
33367;SDS011;19724;51.114;13.906;2022-11-11T06:33:25;9.88;;;4.97;;
33367;SDS011;19724;51.114;13.906;2022-11-11T06:35:50;14.25;;;6.15;;
33367;SDS011;19724;51.114;13.906;2022-11-11T06:38:16;9.30;;;4.60;;
33367;SDS011;19724;51.114;13.906;2022-11-11T06:40:42;13.55;;;5.72;;
33367;SDS011;19724;51.114;13.906;2022-11-11T06:43:08;13.15;;;6.95;;
33367;SDS011;19724;51.114;13.906;2022-11-11T06:45:34;10.55;;;5.63;;
33367;SDS011;19724;51.114;13.906;2022-11-11T06:48:03;10.32;;;5.43;;
33367;SDS011;19724;51.114;13.906;2022-11-11T06:50:33;10.88;;;4.88;;
33367;SDS011;19724;51.114;13.906;2022-11-11T06:53:05;9.32;;;5.40;;
33367;SDS011;19724;51.114;13.906;2022-11-11T06:55:33;12.23;;;6.15;;
33367;SDS011;19724;51.114;13.906;2022-11-11T06:58:12;9.85;;;5.07;;
33367;SDS011;19724;51.114;13.906;2022-11-11T07:00:42;12.48;;;6.25;;
33367;SDS011;19724;51.114;13.906;2022-11-11T07:03:10;11.48;;;5.38;;
33367;SDS011;19724;51.114;13.906;2022-11-11T07:05:38;13.75;;;6.40;;
33367;SDS011;19724;51.114;13.906;2022-11-11T07:08:05;10.10;;;5.97;;
33367;SDS011;19724;51.114;13.906;2022-11-11T07:10:33;9.70;;;5.45;;
33367;SDS011;19724;51.114;13.906;2022-11-11T07:13:01;10.63;;;5.57;;
33367;SDS011;19724;51.114;13.906;2022-11-11T07:15:27;11.07;;;5.90;;
33367;SDS011;19724;51.114;13.906;2022-11-11T07:17:53;13.10;;;5.40;;
33367;SDS011;19724;51.114;13.906;2022-11-11T07:20:18;11.95;;;5.55;;
33367;SDS011;19724;51.114;13.906;2022-11-11T07:22:45;11.18;;;6.13;;
33367;SDS011;19724;51.114;13.906;2022-11-11T07:25:10;8.80;;;6.15;;
33367;SDS011;19724;51.114;13.906;2022-11-11T07:27:36;13.02;;;6.32;;
33367;SDS011;19724;51.114;13.906;2022-11-11T07:30:03;15.38;;;6.38;;
33367;SDS011;19724;51.114;13.906;2022-11-11T07:32:30;14.40;;;7.38;;
33367;SDS011;19724;51.114;13.906;2022-11-11T07:34:55;15.45;;;6.53;;
33367;SDS011;19724;51.114;13.906;2022-11-11T07:37:21;12.40;;;6.70;;
33367;SDS011;19724;51.114;13.906;2022-11-11T07:39:47;17.60;;;8.35;;
33367;SDS011;19724;51.114;13.906;2022-11-11T07:42:12;14.80;;;8.05;;
33367;SDS011;19724;51.114;13.906;2022-11-11T07:44:39;14.55;;;7.25;;
33367;SDS011;19724;51.114;13.906;2022-11-11T07:47:04;12.90;;;7.72;;
33367;SDS011;19724;51.114;13.906;2022-11-11T07:49:30;12.38;;;6.78;;
33367;SDS011;19724;51.114;13.906;2022-11-11T07:51:55;9.32;;;7.20;;
33367;SDS011;19724;51.114;13.906;2022-11-11T07:54:21;14.32;;;7.00;;
33367;SDS011;19724;51.114;13.906;2022-11-11T07:56:47;13.70;;;7.05;;
33367;SDS011;19724;51.114;13.906;2022-11-11T07:59:12;12.93;;;6.70;;
33367;SDS011;19724;51.114;13.906;2022-11-11T08:01:38;11.80;;;6.38;;
33367;SDS011;19724;51.114;13.906;2022-11-11T08:04:03;11.05;;;6.28;;
33367;SDS011;19724;51.114;13.906;2022-11-11T08:06:51;16.95;;;6.72;;
33367;SDS011;19724;51.114;13.906;2022-11-11T08:09:16;11.98;;;5.90;;
33367;SDS011;19724;51.114;13.906;2022-11-11T08:11:42;10.23;;;5.07;;
33367;SDS011;19724;51.114;13.906;2022-11-11T08:14:26;12.55;;;4.95;;
33367;SDS011;19724;51.114;13.906;2022-11-11T08:16:52;14.63;;;5.15;;
33367;SDS011;19724;51.114;13.906;2022-11-11T08:19:17;12.48;;;6.22;;
33367;SDS011;19724;51.114;13.906;2022-11-11T08:21:43;8.68;;;5.18;;
33367;SDS011;19724;51.114;13.906;2022-11-11T08:24:08;9.98;;;5.80;;
33367;SDS011;19724;51.114;13.906;2022-11-11T08:26:35;9.45;;;5.28;;
33367;SDS011;19724;51.114;13.906;2022-11-11T08:29:00;10.25;;;5.35;;
33367;SDS011;19724;51.114;13.906;2022-11-11T08:31:26;12.20;;;5.35;;
33367;SDS011;19724;51.114;13.906;2022-11-11T08:33:51;9.73;;;5.88;;
33367;SDS011;19724;51.114;13.906;2022-11-11T08:36:17;12.73;;;5.68;;
33367;SDS011;19724;51.114;13.906;2022-11-11T08:38:42;13.77;;;6.20;;
33367;SDS011;19724;51.114;13.906;2022-11-11T08:41:09;12.48;;;5.68;;
33367;SDS011;19724;51.114;13.906;2022-11-11T08:43:35;10.88;;;5.57;;
33367;SDS011;19724;51.114;13.906;2022-11-11T08:46:01;12.25;;;5.78;;
33367;SDS011;19724;51.114;13.906;2022-11-11T08:48:29;11.45;;;5.88;;
33367;SDS011;19724;51.114;13.906;2022-11-11T08:50:56;13.65;;;6.72;;
33367;SDS011;19724;51.114;13.906;2022-11-11T08:53:22;10.57;;;6.13;;
33367;SDS011;19724;51.114;13.906;2022-11-11T08:55:48;13.13;;;6.38;;
33367;SDS011;19724;51.114;13.906;2022-11-11T08:58:14;11.55;;;5.88;;
33367;SDS011;19724;51.114;13.906;2022-11-11T09:00:39;13.52;;;6.13;;
33367;SDS011;19724;51.114;13.906;2022-11-11T09:03:06;13.60;;;6.72;;
33367;SDS011;19724;51.114;13.906;2022-11-11T09:05:33;10.57;;;5.00;;
33367;SDS011;19724;51.114;13.906;2022-11-11T09:08:02;13.40;;;5.32;;
33367;SDS011;19724;51.114;13.906;2022-11-11T09:10:31;11.50;;;5.63;;
33367;SDS011;19724;51.114;13.906;2022-11-11T09:12:57;11.40;;;5.60;;
33367;SDS011;19724;51.114;13.906;2022-11-11T09:15:23;10.63;;;6.28;;
33367;SDS011;19724;51.114;13.906;2022-11-11T09:17:50;10.88;;;6.07;;
33367;SDS011;19724;51.114;13.906;2022-11-11T09:20:16;11.38;;;6.22;;
33367;SDS011;19724;51.114;13.906;2022-11-11T09:22:43;12.38;;;7.15;;
33367;SDS011;19724;51.114;13.906;2022-11-11T09:25:09;13.60;;;5.82;;
33367;SDS011;19724;51.114;13.906;2022-11-11T09:27:35;11.00;;;6.53;;
33367;SDS011;19724;51.114;13.906;2022-11-11T09:30:01;13.35;;;7.43;;
33367;SDS011;19724;51.114;13.906;2022-11-11T09:32:26;9.02;;;5.35;;
33367;SDS011;19724;51.114;13.906;2022-11-11T09:34:52;12.10;;;6.60;;
33367;SDS011;19724;51.114;13.906;2022-11-11T09:37:19;11.63;;;6.07;;
33367;SDS011;19724;51.114;13.906;2022-11-11T09:39:45;11.82;;;4.95;;
33367;SDS011;19724;51.114;13.906;2022-11-11T09:42:16;9.15;;;3.13;;
33367;SDS011;19724;51.114;13.906;2022-11-11T09:48:07;14.07;;;3.83;;
33367;SDS011;19724;51.114;13.906;2022-11-11T09:50:41;5.53;;;2.80;;
33367;SDS011;19724;51.114;13.906;2022-11-11T09:55:46;9.70;;;3.42;;
33367;SDS011;19724;51.114;13.906;2022-11-11T10:00:49;6.05;;;2.80;;
33367;SDS011;19724;51.114;13.906;2022-11-11T10:03:25;8.02;;;3.65;;
33367;SDS011;19724;51.114;13.906;2022-11-11T10:08:30;7.25;;;3.47;;
33367;SDS011;19724;51.114;13.906;2022-11-11T10:11:01;8.23;;;3.58;;
33367;SDS011;19724;51.114;13.906;2022-11-11T10:13:35;12.07;;;3.80;;
33367;SDS011;19724;51.114;13.906;2022-11-11T10:18:46;8.90;;;3.38;;
33367;SDS011;19724;51.114;13.906;2022-11-11T10:21:38;8.00;;;3.10;;
33367;SDS011;19724;51.114;13.906;2022-11-11T10:24:16;7.03;;;2.20;;
33367;SDS011;19724;51.114;13.906;2022-11-11T10:26:50;6.03;;;2.13;;
33367;SDS011;19724;51.114;13.906;2022-11-11T10:29:17;8.60;;;2.42;;
33367;SDS011;19724;51.114;13.906;2022-11-11T10:31:44;6.93;;;2.22;;
33367;SDS011;19724;51.114;13.906;2022-11-11T10:34:29;8.68;;;2.15;;
33367;SDS011;19724;51.114;13.906;2022-11-11T10:36:57;7.68;;;2.60;;
33367;SDS011;19724;51.114;13.906;2022-11-11T10:42:15;5.35;;;2.30;;
33367;SDS011;19724;51.114;13.906;2022-11-11T10:44:42;10.52;;;2.80;;
33367;SDS011;19724;51.114;13.906;2022-11-11T10:50:28;9.50;;;3.85;;
33367;SDS011;19724;51.114;13.906;2022-11-11T10:58:06;4.80;;;2.90;;
33367;SDS011;19724;51.114;13.906;2022-11-11T11:00:37;10.07;;;3.63;;
33367;SDS011;19724;51.114;13.906;2022-11-11T11:03:14;7.00;;;2.50;;
33367;SDS011;19724;51.114;13.906;2022-11-11T11:05:55;6.80;;;3.03;;
33367;SDS011;19724;51.114;13.906;2022-11-11T11:08:29;8.45;;;3.05;;
33367;SDS011;19724;51.114;13.906;2022-11-11T11:11:00;8.68;;;3.10;;
33367;SDS011;19724;51.114;13.906;2022-11-11T11:13:48;9.88;;;3.50;;
33367;SDS011;19724;51.114;13.906;2022-11-11T11:16:21;8.52;;;3.83;;
33367;SDS011;19724;51.114;13.906;2022-11-11T11:21:48;8.18;;;3.15;;
33367;SDS011;19724;51.114;13.906;2022-11-11T11:24:18;5.20;;;2.10;;
33367;SDS011;19724;51.114;13.906;2022-11-11T11:26:52;4.57;;;1.63;;
33367;SDS011;19724;51.114;13.906;2022-11-11T11:29:24;3.83;;;1.38;;
33367;SDS011;19724;51.114;13.906;2022-11-11T11:32:14;5.68;;;1.90;;
33367;SDS011;19724;51.114;13.906;2022-11-11T11:34:52;6.10;;;2.83;;
33367;SDS011;19724;51.114;13.906;2022-11-11T11:37:20;6.22;;;2.33;;
33367;SDS011;19724;51.114;13.906;2022-11-11T11:40:00;7.65;;;2.03;;
33367;SDS011;19724;51.114;13.906;2022-11-11T11:42:35;5.00;;;1.92;;
33367;SDS011;19724;51.114;13.906;2022-11-11T11:45:13;4.90;;;2.10;;
33367;SDS011;19724;51.114;13.906;2022-11-11T11:55:41;6.10;;;1.73;;
33367;SDS011;19724;51.114;13.906;2022-11-11T11:58:20;3.53;;;1.40;;
33367;SDS011;19724;51.114;13.906;2022-11-11T12:05:12;9.13;;;1.77;;
33367;SDS011;19724;51.114;13.906;2022-11-11T12:07:30;6.30;;;1.90;;
33367;SDS011;19724;51.114;13.906;2022-11-11T12:13:33;4.77;;;1.63;;
33367;SDS011;19724;51.114;13.906;2022-11-11T12:16:21;6.90;;;1.85;;
33367;SDS011;19724;51.114;13.906;2022-11-11T12:21:37;4.50;;;1.27;;
33367;SDS011;19724;51.114;13.906;2022-11-11T12:26:56;6.93;;;2.13;;
33367;SDS011;19724;51.114;13.906;2022-11-11T12:29:37;5.75;;;1.45;;
33367;SDS011;19724;51.114;13.906;2022-11-11T12:32:37;4.32;;;1.83;;
33367;SDS011;19724;51.114;13.906;2022-11-11T12:35:22;3.30;;;1.33;;
33367;SDS011;19724;51.114;13.906;2022-11-11T12:40:22;5.80;;;1.75;;
33367;SDS011;19724;51.114;13.906;2022-11-11T12:48:32;5.75;;;1.85;;
33367;SDS011;19724;51.114;13.906;2022-11-11T12:54:20;2.95;;;1.50;;
33367;SDS011;19724;51.114;13.906;2022-11-11T13:00:15;5.88;;;1.50;;
33367;SDS011;19724;51.114;13.906;2022-11-11T13:05:30;5.43;;;2.13;;
33367;SDS011;19724;51.114;13.906;2022-11-11T13:10:51;3.42;;;1.38;;
33367;SDS011;19724;51.114;13.906;2022-11-11T13:13:27;6.05;;;2.05;;
33367;SDS011;19724;51.114;13.906;2022-11-11T13:16:21;4.57;;;1.70;;
33367;SDS011;19724;51.114;13.906;2022-11-11T13:21:29;3.47;;;1.65;;
33367;SDS011;19724;51.114;13.906;2022-11-11T13:24:00;6.00;;;1.48;;
33367;SDS011;19724;51.114;13.906;2022-11-11T13:40:58;8.63;;;5.40;;
33367;SDS011;19724;51.114;13.906;2022-11-11T13:43:41;9.82;;;5.68;;
33367;SDS011;19724;51.114;13.906;2022-11-11T13:48:56;8.40;;;5.18;;
33367;SDS011;19724;51.114;13.906;2022-11-11T13:54:04;6.85;;;3.55;;
33367;SDS011;19724;51.114;13.906;2022-11-11T13:56:48;6.93;;;3.53;;
33367;SDS011;19724;51.114;13.906;2022-11-11T13:59:26;6.93;;;4.03;;
33367;SDS011;19724;51.114;13.906;2022-11-11T14:02:17;7.68;;;4.25;;
33367;SDS011;19724;51.114;13.906;2022-11-11T14:05:33;9.10;;;4.38;;
33367;SDS011;19724;51.114;13.906;2022-11-11T14:12:43;9.73;;;4.78;;
33367;SDS011;19724;51.114;13.906;2022-11-11T14:17:57;8.57;;;4.10;;
33367;SDS011;19724;51.114;13.906;2022-11-11T14:20:32;7.07;;;3.75;;
33367;SDS011;19724;51.114;13.906;2022-11-11T14:25:45;12.80;;;5.13;;
33367;SDS011;19724;51.114;13.906;2022-11-11T14:28:31;10.60;;;4.53;;
33367;SDS011;19724;51.114;13.906;2022-11-11T14:33:54;7.75;;;4.10;;
33367;SDS011;19724;51.114;13.906;2022-11-11T14:45:03;11.27;;;7.13;;
33367;SDS011;19724;51.114;13.906;2022-11-11T14:47:49;10.93;;;6.78;;
33367;SDS011;19724;51.114;13.906;2022-11-11T14:50:59;14.50;;;6.53;;
33367;SDS011;19724;51.114;13.906;2022-11-11T14:53:19;11.20;;;5.68;;
33367;SDS011;19724;51.114;13.906;2022-11-11T14:55:54;10.63;;;5.90;;
33367;SDS011;19724;51.114;13.906;2022-11-11T14:58:20;9.98;;;5.70;;
33367;SDS011;19724;51.114;13.906;2022-11-11T15:00:51;11.55;;;5.18;;
33367;SDS011;19724;51.114;13.906;2022-11-11T15:03:32;16.95;;;6.53;;
33367;SDS011;19724;51.114;13.906;2022-11-11T15:14:55;11.63;;;6.80;;
33367;SDS011;19724;51.114;13.906;2022-11-11T15:23:24;14.70;;;6.93;;
33367;SDS011;19724;51.114;13.906;2022-11-11T15:26:04;12.68;;;6.43;;
33367;SDS011;19724;51.114;13.906;2022-11-11T15:28:48;19.15;;;6.65;;
33367;SDS011;19724;51.114;13.906;2022-11-11T15:31:38;14.45;;;6.57;;
33367;SDS011;19724;51.114;13.906;2022-11-11T15:37:02;15.80;;;7.18;;
33367;SDS011;19724;51.114;13.906;2022-11-11T15:39:38;11.98;;;7.45;;
33367;SDS011;19724;51.114;13.906;2022-11-11T15:42:09;13.48;;;7.35;;
33367;SDS011;19724;51.114;13.906;2022-11-11T15:44:57;14.77;;;8.63;;
33367;SDS011;19724;51.114;13.906;2022-11-11T15:47:25;12.98;;;7.50;;
33367;SDS011;19724;51.114;13.906;2022-11-11T15:49:53;13.02;;;7.80;;
33367;SDS011;19724;51.114;13.906;2022-11-11T15:54:51;15.02;;;8.63;;
33367;SDS011;19724;51.114;13.906;2022-11-11T15:57:25;17.25;;;8.52;;
33367;SDS011;19724;51.114;13.906;2022-11-11T15:59:56;12.40;;;8.38;;
33367;SDS011;19724;51.114;13.906;2022-11-11T16:02:24;11.73;;;7.93;;
33367;SDS011;19724;51.114;13.906;2022-11-11T16:04:54;16.05;;;7.68;;
33367;SDS011;19724;51.114;13.906;2022-11-11T16:07:23;14.98;;;8.93;;
33367;SDS011;19724;51.114;13.906;2022-11-11T16:09:51;18.00;;;8.60;;
33367;SDS011;19724;51.114;13.906;2022-11-11T16:12:26;18.38;;;8.10;;
33367;SDS011;19724;51.114;13.906;2022-11-11T16:14:59;14.43;;;8.73;;
33367;SDS011;19724;51.114;13.906;2022-11-11T16:17:29;14.45;;;7.55;;
33367;SDS011;19724;51.114;13.906;2022-11-11T16:20:01;17.13;;;9.82;;
33367;SDS011;19724;51.114;13.906;2022-11-11T16:22:28;15.18;;;9.25;;
33367;SDS011;19724;51.114;13.906;2022-11-11T16:24:59;16.10;;;9.32;;
33367;SDS011;19724;51.114;13.906;2022-11-11T16:27:28;17.77;;;9.15;;
33367;SDS011;19724;51.114;13.906;2022-11-11T16:29:55;15.40;;;10.23;;
33367;SDS011;19724;51.114;13.906;2022-11-11T16:32:58;19.23;;;9.55;;
33367;SDS011;19724;51.114;13.906;2022-11-11T16:37:53;15.30;;;9.63;;
33367;SDS011;19724;51.114;13.906;2022-11-11T16:50:57;18.42;;;10.32;;
33367;SDS011;19724;51.114;13.906;2022-11-11T16:53:30;21.08;;;12.38;;
33367;SDS011;19724;51.114;13.906;2022-11-11T16:55:58;25.08;;;12.18;;
33367;SDS011;19724;51.114;13.906;2022-11-11T16:58:26;19.00;;;10.77;;
33367;SDS011;19724;51.114;13.906;2022-11-11T17:01:02;19.83;;;13.20;;
33367;SDS011;19724;51.114;13.906;2022-11-11T17:03:28;19.35;;;13.00;;
33367;SDS011;19724;51.114;13.906;2022-11-11T17:06:04;25.20;;;16.50;;
33367;SDS011;19724;51.114;13.906;2022-11-11T17:08:43;25.10;;;16.10;;
33367;SDS011;19724;51.114;13.906;2022-11-11T17:11:11;17.45;;;12.07;;
33367;SDS011;19724;51.114;13.906;2022-11-11T17:14:02;18.23;;;12.02;;
33367;SDS011;19724;51.114;13.906;2022-11-11T17:16:28;22.35;;;13.45;;
33367;SDS011;19724;51.114;13.906;2022-11-11T17:18:53;18.50;;;12.45;;
33367;SDS011;19724;51.114;13.906;2022-11-11T17:21:19;20.75;;;12.82;;
33367;SDS011;19724;51.114;13.906;2022-11-11T17:23:44;22.58;;;13.32;;
33367;SDS011;19724;51.114;13.906;2022-11-11T17:26:10;19.10;;;12.30;;
33367;SDS011;19724;51.114;13.906;2022-11-11T17:28:36;19.52;;;12.25;;